Time;durP1;ratioP1;P1;durP2;ratioP2;P2;SDS_P1;SDS_P2;PMS_P1;PMS_P2;Temp;Humidity;BMP_temperature;BMP_pressure;BME280_temperature;BME280_humidity;BME280_pressure;Samples;Min_cycle;Max_cycle;Signal;HPM_P1;HPM_P2
2023/08/11 00:01:17;;;;;;;10.48;6.90;;;;;;;26.78;46.87;102081.75;5046390;28;20020;-71
2023/08/11 00:03:43;;;;;;;13.65;7.60;;;;;;;26.97;46.62;102077.97;5042338;28;20111;-71
2023/08/11 00:06:09;;;;;;;13.93;7.10;;;;;;;26.84;46.93;102076.00;5073144;28;20108;-73
2023/08/11 00:08:39;;;;;;;11.73;7.10;;;;;;;26.62;47.46;102075.53;5049867;28;20559;-71
2023/08/11 00:11:06;;;;;;;11.15;6.90;;;;;;;27.22;46.13;102080.03;5054865;28;20029;-72
2023/08/11 00:13:31;;;;;;;11.32;6.88;;;;;;;27.18;45.99;102076.66;5055404;28;20036;-72
2023/08/11 00:15:57;;;;;;;11.43;6.95;;;;;;;27.15;46.20;102079.53;5053843;28;20388;-72
2023/08/11 00:18:22;;;;;;;10.90;7.38;;;;;;;27.01;46.23;102083.06;5073587;28;20544;-72
2023/08/11 00:20:48;;;;;;;10.93;7.25;;;;;;;26.89;46.45;102079.28;5053639;28;20024;-72
2023/08/11 00:23:13;;;;;;;9.50;6.50;;;;;;;26.98;46.38;102071.66;5054251;28;20123;-71
2023/08/11 00:25:39;;;;;;;12.85;7.50;;;;;;;26.83;46.61;102074.31;5053805;28;20043;-71
2023/08/11 00:28:04;;;;;;;10.20;6.93;;;;;;;26.62;47.24;102079.06;5054792;28;20029;-71
2023/08/11 00:30:30;;;;;;;10.20;7.05;;;;;;;26.70;47.32;102071.47;5053782;28;20094;-71
2023/08/11 00:32:55;;;;;;;9.23;6.70;;;;;;;26.85;46.85;102067.00;5054466;28;20098;-71
2023/08/11 00:35:22;;;;;;;11.68;7.07;;;;;;;26.78;47.08;102054.94;5071568;28;20090;-71
2023/08/11 00:37:48;;;;;;;11.57;7.55;;;;;;;26.76;46.81;102056.81;5072084;28;20058;-71
2023/08/11 00:40:13;;;;;;;10.35;6.60;;;;;;;26.72;47.26;102060.66;5050582;28;20120;-72
2023/08/11 00:42:39;;;;;;;11.45;6.60;;;;;;;26.47;47.87;102062.06;5050807;28;20396;-71
2023/08/11 00:45:06;;;;;;;8.85;6.55;;;;;;;26.28;48.41;102050.69;5035313;28;20392;-71
2023/08/11 00:47:35;;;;;;;10.70;6.40;;;;;;;26.84;46.65;102043.81;5069128;28;20078;-71
2023/08/11 00:50:03;;;;;;;10.48;7.15;;;;;;;26.74;46.70;102051.56;5053243;28;20128;-71
2023/08/11 00:52:28;;;;;;;9.63;6.93;;;;;;;26.43;47.65;102044.44;5055120;28;20029;-72
2023/08/11 00:54:56;;;;;;;8.70;6.10;;;;;;;25.99;48.96;102045.13;5052751;28;20036;-72
2023/08/11 00:57:22;;;;;;;8.98;6.53;;;;;;;26.50;48.00;102042.25;5070312;28;20040;-71
2023/08/11 00:59:49;;;;;;;10.95;7.07;;;;;;;26.71;47.23;102038.34;5043299;28;20060;-71
2023/08/11 01:02:15;;;;;;;9.80;6.72;;;;;;;26.31;47.53;102035.31;5072311;28;20428;-71
2023/08/11 01:04:41;;;;;;;10.10;7.15;;;;;;;25.98;48.49;102030.00;5053455;28;20056;-72
2023/08/11 01:07:12;;;;;;;9.40;6.38;;;;;;;26.27;48.02;102033.75;5054633;28;20047;-71
2023/08/11 01:09:51;;;;;;;11.93;6.85;;;;;;;26.19;48.17;102036.84;5053816;28;20040;-72
2023/08/11 01:12:41;;;;;;;12.13;7.00;;;;;;;26.46;47.81;102038.03;5051007;28;20033;-72
2023/08/11 01:15:13;;;;;;;9.73;7.10;;;;;;;25.82;48.79;102033.56;5052949;28;20404;-71
2023/08/11 01:17:41;;;;;;;16.80;6.75;;;;;;;26.48;47.68;102031.63;5053948;28;20071;-71
2023/08/11 01:20:10;;;;;;;9.07;6.00;;;;;;;26.33;47.89;102043.25;5071852;28;20033;-72
2023/08/11 01:22:38;;;;;;;11.88;6.70;;;;;;;26.30;47.68;102036.25;5053133;28;20043;-71
2023/08/11 01:25:07;;;;;;;10.35;6.65;;;;;;;25.80;49.26;102037.25;5051799;28;20036;-72
2023/08/11 01:27:52;;;;;;;9.48;6.47;;;;;;;25.94;48.96;102041.84;5072070;28;20024;-72
2023/08/11 01:30:18;;;;;;;11.48;7.05;;;;;;;25.54;50.14;102032.41;5062484;28;20060;-71
2023/08/11 01:32:44;;;;;;;9.80;6.40;;;;;;;25.23;50.78;102026.00;5059682;28;20059;-72
2023/08/11 01:35:10;;;;;;;11.85;7.80;;;;;;;25.34;51.00;102021.91;5038399;28;20119;-71
2023/08/11 01:37:35;;;;;;;10.27;6.93;;;;;;;26.13;48.86;102026.50;5048841;28;20037;-72
2023/08/11 01:40:01;;;;;;;9.63;6.80;;;;;;;25.23;50.15;102023.31;5052460;28;20545;-72
2023/08/11 01:42:26;;;;;;;9.77;6.15;;;;;;;25.36;50.20;102020.00;5070024;28;20036;-72
2023/08/11 01:44:52;;;;;;;14.85;6.80;;;;;;;24.78;51.87;102019.44;5052685;28;20124;-71
2023/08/11 01:47:19;;;;;;;9.93;6.45;;;;;;;25.39;51.24;102015.38;5052755;28;20401;-71
2023/08/11 01:49:46;;;;;;;9.02;5.95;;;;;;;25.79;49.75;102012.31;5053231;28;20086;-74
2023/08/11 01:52:12;;;;;;;11.48;6.63;;;;;;;25.24;51.04;102019.69;5052855;28;20032;-72
2023/08/11 01:54:41;;;;;;;9.32;6.03;;;;;;;24.62;53.06;102013.13;5069985;28;20036;-72
2023/08/11 01:57:07;;;;;;;8.80;6.63;;;;;;;25.55;50.92;102014.53;5064438;28;20089;-71
2023/08/11 01:59:32;;;;;;;7.95;5.78;;;;;;;25.49;50.90;102004.16;5089919;28;20031;-71
2023/08/11 02:01:57;;;;;;;10.48;6.15;;;;;;;25.84;50.11;102015.59;5088182;28;20028;-71
2023/08/11 02:04:23;;;;;;;9.35;6.10;;;;;;;25.88;50.00;102017.16;5090493;28;20039;-71
2023/08/11 02:06:49;;;;;;;9.20;6.18;;;;;;;25.95;49.44;102023.00;5088945;28;20059;-71
2023/08/11 02:09:14;;;;;;;7.82;5.32;;;;;;;25.97;49.24;102030.97;5088464;28;20189;-72
2023/08/11 02:11:40;;;;;;;9.55;6.07;;;;;;;25.77;49.82;102027.59;5078781;28;20440;-71
2023/08/11 02:14:06;;;;;;;9.07;4.95;;;;;;;26.01;49.28;102028.03;5069475;28;20025;-71
2023/08/11 02:16:32;;;;;;;9.75;6.10;;;;;;;25.79;49.53;102028.38;5077947;28;20042;-71
2023/08/11 02:18:58;;;;;;;8.90;6.28;;;;;;;25.87;49.21;102026.13;5069517;28;20033;-71
2023/08/11 02:21:23;;;;;;;9.88;6.07;;;;;;;24.94;51.69;102029.34;5088775;28;20088;-71
2023/08/11 02:23:49;;;;;;;12.23;6.57;;;;;;;24.85;52.42;102023.53;5089579;28;20031;-71
2023/08/11 02:26:15;;;;;;;10.05;7.03;;;;;;;25.12;51.54;102027.53;5085879;28;20032;-72
2023/08/11 02:28:41;;;;;;;10.45;6.53;;;;;;;25.36;50.65;102020.00;5075743;28;20028;-71
2023/08/11 02:31:08;;;;;;;9.32;6.75;;;;;;;25.61;50.37;102022.22;5085383;28;20111;-71
2023/08/11 02:33:35;;;;;;;10.02;6.03;;;;;;;25.54;50.47;102018.13;5090931;28;20028;-71
2023/08/11 02:36:00;;;;;;;10.48;6.30;;;;;;;25.52;50.52;102015.56;5088521;28;20034;-71
2023/08/11 02:38:26;;;;;;;13.18;7.00;;;;;;;25.49;50.36;102014.88;5090003;28;20032;-71
2023/08/11 02:40:51;;;;;;;10.43;6.70;;;;;;;25.45;49.84;102011.50;5089450;28;20032;-71
2023/08/11 02:43:17;;;;;;;9.77;6.47;;;;;;;24.43;53.44;102006.03;5089280;28;20036;-72
2023/08/11 02:45:42;;;;;;;11.90;6.78;;;;;;;24.83;52.60;102001.34;5087985;28;20035;-72
2023/08/11 02:48:07;;;;;;;12.43;7.15;;;;;;;25.40;51.04;102002.84;5089652;28;20020;-71
2023/08/11 02:50:33;;;;;;;10.50;6.97;;;;;;;25.15;51.85;101990.75;5089222;28;20032;-72
2023/08/11 02:52:59;;;;;;;10.52;6.93;;;;;;;24.60;53.15;101993.63;5088997;28;20047;-71
2023/08/11 02:55:24;;;;;;;10.10;6.63;;;;;;;25.30;51.52;101996.25;5089532;28;20035;-72
2023/08/11 02:57:49;;;;;;;11.25;7.30;;;;;;;25.32;51.20;102002.38;5088594;28;20054;-70
2023/08/11 03:00:15;;;;;;;8.93;6.22;;;;;;;25.55;50.55;102004.69;5076707;28;20032;-72
2023/08/11 03:02:41;;;;;;;10.60;7.00;;;;;;;25.20;51.78;102010.09;5089167;28;20109;-71
2023/08/11 03:05:09;;;;;;;8.77;6.43;;;;;;;25.21;51.49;102003.81;5085652;28;20031;-71
2023/08/11 03:07:38;;;;;;;9.90;7.13;;;;;;;24.52;53.04;102000.25;5089432;28;20028;-71
2023/08/11 03:10:05;;;;;;;11.48;7.60;;;;;;;25.06;52.06;102002.81;5085361;28;20029;-71
2023/08/11 03:12:30;;;;;;;10.80;7.68;;;;;;;25.31;51.05;102000.66;5083534;28;20043;-71
2023/08/11 03:14:56;;;;;;;12.00;7.55;;;;;;;25.04;51.95;101994.00;5091228;28;20024;-72
2023/08/11 03:17:22;;;;;;;12.05;7.18;;;;;;;24.71;53.23;101991.28;5092901;28;20035;-71
2023/08/11 03:19:48;;;;;;;11.85;7.13;;;;;;;24.98;52.31;101997.00;5079621;28;20066;-72
2023/08/11 03:22:17;;;;;;;9.20;6.80;;;;;;;25.21;51.81;101990.44;5074629;28;20037;-72
2023/08/11 03:24:44;;;;;;;10.25;6.80;;;;;;;24.74;52.65;101996.47;5084908;28;20085;-71
2023/08/11 03:27:09;;;;;;;13.32;6.93;;;;;;;24.87;52.86;101997.56;5093498;28;20028;-72
2023/08/11 03:29:35;;;;;;;8.68;6.68;;;;;;;24.32;54.46;101990.53;5091097;28;20063;-71
2023/08/11 03:32:01;;;;;;;9.05;6.45;;;;;;;24.55;54.22;101992.06;5093846;28;20028;-71
2023/08/11 03:34:26;;;;;;;10.45;6.60;;;;;;;25.07;52.48;101992.97;5092870;28;20032;-72
2023/08/11 03:36:51;;;;;;;10.70;7.18;;;;;;;25.29;51.65;101991.84;5092629;28;20055;-71
2023/08/11 03:39:17;;;;;;;13.40;7.50;;;;;;;25.21;51.59;101989.56;5083108;28;20187;-71
2023/08/11 03:41:42;;;;;;;10.30;7.10;;;;;;;25.18;51.65;101990.63;5072341;28;20032;-72
2023/08/11 03:44:08;;;;;;;10.13;7.03;;;;;;;25.31;50.68;101995.31;5079351;28;20031;-71
2023/08/11 03:46:35;;;;;;;9.98;6.60;;;;;;;25.26;50.99;101979.47;5091908;28;20032;-71
2023/08/11 03:49:00;;;;;;;10.68;6.75;;;;;;;25.43;50.90;101983.97;5086332;28;20031;-71
2023/08/11 03:51:26;;;;;;;10.35;7.22;;;;;;;24.90;51.56;101976.00;5083564;28;20024;-71
2023/08/11 03:53:52;;;;;;;11.75;6.85;;;;;;;24.54;53.24;101979.63;5091257;28;20020;-72
2023/08/11 03:56:18;;;;;;;9.63;6.38;;;;;;;24.89;52.70;101979.66;5093116;28;20032;-71
2023/08/11 03:58:43;;;;;;;9.10;6.85;;;;;;;24.73;52.67;101979.59;5051362;28;20021;-71
2023/08/11 04:01:09;;;;;;;10.88;7.80;;;;;;;24.90;51.68;101969.81;5067110;28;20032;-71
2023/08/11 04:03:37;;;;;;;12.32;6.65;;;;;;;24.59;52.94;101975.84;5073034;28;20133;-72
2023/08/11 04:06:03;;;;;;;9.82;6.75;;;;;;;25.10;51.58;101959.84;5049867;28;20484;-71
2023/08/11 04:08:29;;;;;;;8.57;6.55;;;;;;;24.96;51.87;101957.94;5069829;28;20117;-71
2023/08/11 04:10:55;;;;;;;11.07;7.30;;;;;;;24.41;53.24;101959.81;5054405;28;20288;-72
2023/08/11 04:13:20;;;;;;;11.50;7.70;;;;;;;24.45;53.35;101958.72;5044136;28;20488;-71
2023/08/11 04:15:47;;;;;;;10.60;6.78;;;;;;;24.67;52.66;101957.66;5054685;28;20036;-72
2023/08/11 04:18:13;;;;;;;24.50;8.20;;;;;;;24.80;52.35;101953.41;5055308;28;20056;-72
2023/08/11 04:20:39;;;;;;;12.70;8.52;;;;;;;24.70;52.26;101949.47;5054615;28;20063;-71
2023/08/11 04:23:05;;;;;;;10.77;8.02;;;;;;;24.42;53.70;101948.19;5055483;28;20083;-72
2023/08/11 04:25:30;;;;;;;10.27;7.65;;;;;;;24.62;52.87;101944.53;5052538;28;20037;-74
2023/08/11 04:27:56;;;;;;;12.35;8.13;;;;;;;24.25;54.27;101946.38;5045821;28;20032;-73
2023/08/11 04:30:21;;;;;;;11.38;8.23;;;;;;;24.09;54.11;101937.41;5053560;28;20059;-73
2023/08/11 04:32:48;;;;;;;13.25;8.32;;;;;;;24.39;53.36;101926.97;5072418;28;20116;-72
2023/08/11 04:35:13;;;;;;;10.63;7.57;;;;;;;24.30;54.05;101932.78;5053191;28;20074;-74
2023/08/11 04:37:39;;;;;;;14.07;7.95;;;;;;;24.23;54.20;101934.91;5053979;28;20020;-73
2023/08/11 04:40:09;;;;;;;18.65;8.40;;;;;;;24.25;54.19;101937.50;5073130;28;20043;-73
2023/08/11 04:42:38;;;;;;;12.25;7.75;;;;;;;24.48;52.82;101937.22;5053984;28;20507;-74
2023/08/11 04:45:04;;;;;;;11.45;7.68;;;;;;;24.51;53.84;101937.03;5054050;28;20113;-73
2023/08/11 04:47:29;;;;;;;11.95;8.20;;;;;;;24.84;52.53;101938.91;5049693;28;20425;-73
2023/08/11 04:49:55;;;;;;;11.32;8.05;;;;;;;24.85;52.32;101935.31;5053665;28;20499;-71
2023/08/11 04:52:21;;;;;;;14.35;7.85;;;;;;;24.75;52.61;101928.72;5054782;28;20056;-72
2023/08/11 04:54:47;;;;;;;12.82;8.73;;;;;;;24.96;51.97;101920.50;5053001;28;20024;-72
2023/08/11 04:57:12;;;;;;;13.68;8.57;;;;;;;24.42;53.42;101924.16;5055616;28;20066;-72
2023/08/11 04:59:38;;;;;;;12.95;8.10;;;;;;;24.72;52.56;101928.88;5091210;28;20028;-72
2023/08/11 05:02:03;;;;;;;11.60;7.82;;;;;;;24.49;53.40;101928.22;5085331;28;20031;-74
2023/08/11 05:04:28;;;;;;;11.20;7.35;;;;;;;24.95;52.53;101924.09;5076750;28;20036;-71
2023/08/11 05:06:54;;;;;;;11.10;7.38;;;;;;;25.15;51.17;101931.06;5090035;28;20032;-71
2023/08/11 05:09:20;;;;;;;17.55;8.50;;;;;;;25.29;50.74;101932.97;5081784;28;20047;-73
2023/08/11 05:11:45;;;;;;;12.15;7.82;;;;;;;25.48;50.39;101933.72;5091056;28;20549;-72
2023/08/11 05:14:14;;;;;;;10.80;7.10;;;;;;;25.57;49.96;101935.88;5091309;28;20061;-71
2023/08/11 05:16:39;;;;;;;10.35;6.57;;;;;;;25.70;49.72;101928.00;5089832;28;20487;-74
2023/08/11 05:19:05;;;;;;;10.57;7.10;;;;;;;25.46;50.33;101930.28;5090289;28;20081;-72
2023/08/11 05:21:30;;;;;;;11.43;7.63;;;;;;;25.50;50.15;101930.94;5091958;28;20056;-74
2023/08/11 05:23:56;;;;;;;10.38;7.45;;;;;;;25.78;49.68;101930.25;5077800;28;20028;-72
2023/08/11 05:26:21;;;;;;;9.38;6.97;;;;;;;25.54;50.21;101928.03;5085502;28;20058;-72
2023/08/11 05:28:47;;;;;;;12.75;7.78;;;;;;;25.67;50.33;101927.34;5089812;28;20038;-72
2023/08/11 05:31:12;;;;;;;10.95;7.68;;;;;;;26.07;49.39;101925.06;5088108;28;21960;-72
2023/08/11 05:33:38;;;;;;;13.15;7.50;;;;;;;26.06;49.13;101931.34;5089969;28;20458;-72
2023/08/11 05:36:07;;;;;;;12.38;7.68;;;;;;;25.77;49.31;101927.66;5089822;28;20487;-72
2023/08/11 05:38:32;;;;;;;11.93;6.85;;;;;;;25.63;50.08;101931.13;5087109;28;20028;-72
2023/08/11 05:40:58;;;;;;;9.63;6.30;;;;;;;26.06;49.36;101934.03;5075868;28;20028;-72
2023/08/11 05:43:23;;;;;;;11.77;6.90;;;;;;;25.87;49.65;101923.50;5090508;28;20050;-72
2023/08/11 05:45:48;;;;;;;10.88;6.78;;;;;;;26.09;49.36;101928.53;5090567;28;20113;-72
2023/08/11 05:48:14;;;;;;;11.68;7.93;;;;;;;26.08;48.95;101937.50;5090201;28;20039;-72
2023/08/11 05:50:43;;;;;;;14.98;7.95;;;;;;;26.28;49.01;101932.78;5089759;28;20036;-72
2023/08/11 05:53:08;;;;;;;11.10;7.63;;;;;;;26.05;49.65;101937.69;5089205;28;20054;-72
2023/08/11 05:55:37;;;;;;;12.27;6.72;;;;;;;26.55;48.55;101941.84;5088740;28;20032;-72
2023/08/11 05:58:03;;;;;;;12.18;7.20;;;;;;;26.54;48.67;101939.25;5089312;28;20537;-72
2023/08/11 06:00:28;;;;;;;11.93;7.28;;;;;;;26.78;48.10;101938.75;5078439;28;20028;-72
2023/08/11 06:02:54;;;;;;;11.05;7.00;;;;;;;26.83;48.29;101945.56;5090279;28;20095;-72
2023/08/11 06:05:21;;;;;;;11.07;6.95;;;;;;;26.55;48.67;101949.03;5089298;28;20036;-72
2023/08/11 06:07:50;;;;;;;15.02;7.35;;;;;;;26.43;49.28;101942.56;5084305;28;20023;-71
2023/08/11 06:10:16;;;;;;;11.93;7.30;;;;;;;26.54;49.36;101949.97;5088804;28;20677;-72
2023/08/11 06:12:41;;;;;;;12.63;7.63;;;;;;;26.67;48.97;101952.81;5090676;28;20110;-72
2023/08/11 06:15:07;;;;;;;11.43;7.35;;;;;;;26.88;48.74;101953.31;5089109;28;20036;-72
2023/08/11 06:17:32;;;;;;;11.88;7.05;;;;;;;26.82;48.57;101954.56;5079164;28;20031;-72
2023/08/11 06:19:58;;;;;;;13.75;7.18;;;;;;;26.50;49.33;101953.81;5069622;28;20052;-72
2023/08/11 06:22:23;;;;;;;12.68;6.82;;;;;;;26.21;50.02;101954.59;5079152;28;20036;-72
2023/08/11 06:24:49;;;;;;;10.98;6.85;;;;;;;26.07;50.46;101951.84;5089653;28;20046;-72
2023/08/11 06:27:15;;;;;;;9.57;6.45;;;;;;;26.44;49.50;101948.81;5089297;28;20036;-72
2023/08/11 06:29:41;;;;;;;10.10;6.60;;;;;;;27.06;48.84;101945.94;5088838;28;20104;-72
2023/08/11 06:32:07;;;;;;;12.57;6.97;;;;;;;27.10;48.44;101947.47;5085233;28;20028;-72
2023/08/11 06:34:33;;;;;;;12.93;6.50;;;;;;;27.00;48.54;101947.19;5071561;28;20661;-72
2023/08/11 06:36:58;;;;;;;10.68;6.05;;;;;;;27.31;47.76;101945.25;5088932;28;20039;-73
2023/08/11 06:39:23;;;;;;;11.27;6.03;;;;;;;27.73;47.37;101951.53;5089603;28;20070;-71
2023/08/11 06:41:49;;;;;;;11.30;6.20;;;;;;;27.64;47.55;101945.91;5088239;28;20462;-72
2023/08/11 06:44:14;;;;;;;13.15;6.28;;;;;;;27.38;47.96;101945.75;5079255;28;20047;-72
2023/08/11 06:46:40;;;;;;;9.45;5.93;;;;;;;27.63;48.36;101938.81;5081732;28;20648;-72
2023/08/11 06:49:06;;;;;;;10.85;6.40;;;;;;;27.26;48.22;101945.56;5086101;28;20024;-72
2023/08/11 06:51:31;;;;;;;10.52;5.70;;;;;;;27.41;47.70;101941.06;5079700;28;20103;-72
2023/08/11 06:53:57;;;;;;;9.65;5.20;;;;;;;27.87;47.32;101931.81;5088660;28;20205;-72
2023/08/11 06:56:22;;;;;;;13.40;5.80;;;;;;;28.03;46.85;101931.72;5084948;28;20499;-73
2023/08/11 06:58:49;;;;;;;8.98;5.75;;;;;;;28.31;46.26;101928.97;5065173;28;20045;-72
2023/08/11 07:01:17;;;;;;;8.30;5.32;;;;;;;27.82;47.81;101939.34;5046101;28;20051;-72
2023/08/11 07:03:46;;;;;;;9.77;5.65;;;;;;;28.98;45.42;101936.03;5051576;28;20029;-73
2023/08/11 07:06:13;;;;;;;8.73;5.85;;;;;;;30.37;42.31;101939.34;5052840;28;20021;-73
2023/08/11 07:08:39;;;;;;;10.27;5.05;;;;;;;31.82;40.27;101949.44;5051685;28;20032;-73
2023/08/11 07:11:05;;;;;;;5.38;4.07;;;;;;;32.67;37.75;101944.13;5051094;28;20439;-73
2023/08/11 07:13:31;;;;;;;9.65;4.55;;;;;;;34.07;35.08;101938.84;5045927;28;20021;-72
2023/08/11 07:15:57;;;;;;;7.53;3.75;;;;;;;33.32;34.61;101944.75;5034372;28;20033;-73
2023/08/11 07:18:23;;;;;;;7.63;4.28;;;;;;;35.41;32.51;101955.94;5046657;28;20083;-73
2023/08/11 07:20:49;;;;;;;7.95;4.22;;;;;;;35.35;32.34;101945.66;5045283;28;20024;-73
2023/08/11 07:23:16;;;;;;;6.05;3.90;;;;;;;36.09;31.44;101942.84;5051833;28;20029;-73
2023/08/11 07:25:41;;;;;;;5.70;3.90;;;;;;;35.66;31.50;101948.03;5050049;28;20028;-73
2023/08/11 07:28:07;;;;;;;5.72;3.72;;;;;;;36.96;29.27;101949.28;5049272;28;20039;-73
2023/08/11 07:30:33;;;;;;;9.52;3.40;;;;;;;37.82;29.10;101951.94;5065241;28;20056;-73
2023/08/11 07:33:00;;;;;;;7.60;3.83;;;;;;;36.48;30.04;101948.78;5050134;28;20369;-73
2023/08/11 07:35:26;;;;;;;7.05;3.33;;;;;;;37.49;28.86;101946.41;5052155;28;20566;-73
2023/08/11 07:37:51;;;;;;;7.32;3.40;;;;;;;36.94;29.58;101943.13;5049426;28;20144;-73
2023/08/11 07:40:17;;;;;;;4.50;3.00;;;;;;;38.16;28.04;101943.59;5051357;28;20022;-73
2023/08/11 07:42:42;;;;;;;5.38;3.33;;;;;;;38.46;27.44;101943.09;5050968;28;20024;-73
2023/08/11 07:45:08;;;;;;;7.43;3.28;;;;;;;37.56;27.25;101941.97;5048750;28;20020;-73
2023/08/11 07:47:35;;;;;;;4.15;2.67;;;;;;;38.55;26.25;101942.00;5037073;28;20029;-73
2023/08/11 07:50:01;;;;;;;3.92;2.47;;;;;;;38.04;27.11;101935.94;5031986;28;20036;-73
2023/08/11 07:52:26;;;;;;;4.95;2.45;;;;;;;37.12;27.87;101940.28;5031246;28;20032;-73
2023/08/11 07:54:51;;;;;;;6.72;2.83;;;;;;;39.52;25.93;101949.16;5053780;28;20024;-73
2023/08/11 07:57:17;;;;;;;3.05;2.13;;;;;;;38.51;25.69;101946.13;5069647;28;20045;-74
2023/08/11 07:59:42;;;;;;;4.60;2.50;;;;;;;38.46;25.98;101948.53;5050964;28;20028;-74
2023/08/11 08:02:08;;;;;;;2.72;2.13;;;;;;;39.17;25.34;101951.41;5053789;28;20054;-74
2023/08/11 08:04:33;;;;;;;4.75;2.08;;;;;;;38.24;25.56;101961.88;5041752;28;20033;-73
2023/08/11 08:06:59;;;;;;;3.17;1.73;;;;;;;38.44;26.72;101956.03;5039285;28;20024;-73
2023/08/11 08:09:25;;;;;;;3.58;2.08;;;;;;;38.45;26.22;101946.81;5052799;28;20033;-73
2023/08/11 08:11:50;;;;;;;5.00;2.55;;;;;;;39.65;24.88;101954.94;5050124;28;20032;-74
2023/08/11 08:14:16;;;;;;;3.08;2.33;;;;;;;38.35;25.61;101956.06;5053932;28;20033;-74
2023/08/11 08:16:41;;;;;;;5.15;1.98;;;;;;;38.88;25.63;101952.88;5054093;28;20030;-74
2023/08/11 08:19:07;;;;;;;3.25;2.30;;;;;;;38.42;26.39;101952.66;5052496;28;20028;-74
2023/08/11 08:21:33;;;;;;;2.55;1.83;;;;;;;35.73;28.20;101960.00;5054238;28;20082;-73
2023/08/11 08:23:59;;;;;;;2.78;1.80;;;;;;;37.11;28.11;101954.06;5040268;28;20033;-74
2023/08/11 08:26:25;;;;;;;3.03;1.95;;;;;;;36.61;29.11;101956.53;5053088;28;20037;-74
2023/08/11 08:28:51;;;;;;;2.90;2.10;;;;;;;36.82;28.71;101947.13;5043281;28;20013;-73
2023/08/11 08:31:16;;;;;;;5.15;1.92;;;;;;;36.94;30.22;101955.88;5035057;28;20032;-75
2023/08/11 08:33:43;;;;;;;2.03;1.58;;;;;;;35.95;28.65;101964.16;5045046;28;20028;-74
2023/08/11 08:36:09;;;;;;;2.63;1.67;;;;;;;36.61;28.97;101953.81;5053158;28;20048;-73
2023/08/11 08:38:36;;;;;;;3.97;1.92;;;;;;;38.13;27.04;101954.84;5072560;28;20063;-74
2023/08/11 08:41:07;;;;;;;2.63;2.00;;;;;;;38.40;26.20;101955.50;5053282;28;20105;-75
2023/08/11 08:43:33;;;;;;;3.88;2.10;;;;;;;38.96;26.06;101952.84;5054247;28;20025;-74
2023/08/11 08:46:03;;;;;;;2.33;1.65;;;;;;;37.79;26.86;101964.03;5054301;28;20039;-74
2023/08/11 08:48:58;;;;;;;2.78;1.50;;;;;;;37.00;28.13;101958.81;5050432;28;20047;-74
2023/08/11 08:51:24;;;;;;;2.97;1.65;;;;;;;37.22;27.67;101961.97;5023509;28;20036;-74
2023/08/11 08:53:50;;;;;;;3.15;1.67;;;;;;;38.84;26.51;101962.44;5053825;28;20020;-74
2023/08/11 08:56:16;;;;;;;2.83;1.50;;;;;;;37.78;26.96;101958.75;5072102;28;20391;-73
2023/08/11 08:58:42;;;;;;;4.40;1.92;;;;;;;38.96;25.39;101954.72;5051228;28;20072;-75
2023/08/11 09:01:09;;;;;;;2.83;1.90;;;;;;;38.36;25.86;101959.63;5045978;28;20024;-73
2023/08/11 09:03:39;;;;;;;3.00;1.52;;;;;;;39.40;25.25;101956.91;5048865;28;20024;-74
2023/08/11 09:06:05;;;;;;;3.67;1.85;;;;;;;39.46;26.09;101960.81;5054676;28;20032;-73
2023/08/11 09:08:38;;;;;;;3.25;1.70;;;;;;;39.05;25.86;101953.66;5050335;28;20067;-74
2023/08/11 09:11:03;;;;;;;2.88;1.60;;;;;;;39.36;24.80;101961.91;5049749;28;20036;-75
2023/08/11 09:13:31;;;;;;;2.33;1.70;;;;;;;39.48;25.64;101956.03;5067054;28;20111;-74
2023/08/11 09:15:57;;;;;;;1.75;1.50;;;;;;;39.26;25.04;101955.81;5045637;28;20078;-75
2023/08/11 09:18:22;;;;;;;2.60;1.63;;;;;;;38.97;26.18;101953.72;5058851;28;20024;-74
2023/08/11 09:20:49;;;;;;;2.17;1.67;;;;;;;39.21;25.34;101958.22;5053135;28;20051;-74
2023/08/11 09:23:17;;;;;;;4.53;2.00;;;;;;;38.06;26.57;101952.97;5071863;28;20245;-75
2023/08/11 09:25:43;;;;;;;6.45;1.73;;;;;;;39.98;25.09;101960.16;5047286;28;20048;-74
2023/08/11 09:28:08;;;;;;;1.58;1.27;;;;;;;41.08;24.94;101946.03;5041920;28;20021;-74
2023/08/11 09:30:37;;;;;;;2.42;1.48;;;;;;;40.34;24.33;101948.53;5060353;28;20103;-74
2023/08/11 09:33:03;;;;;;;1.50;1.40;;;;;;;39.67;25.16;101949.28;5072199;28;20063;-74
2023/08/11 09:35:29;;;;;;;3.83;1.60;;;;;;;40.28;24.15;101953.91;5054222;28;20030;-74
2023/08/11 09:37:55;;;;;;;2.00;1.50;;;;;;;40.42;24.38;101952.22;5052443;28;20045;-74
2023/08/11 09:40:22;;;;;;;3.20;1.42;;;;;;;39.94;24.73;101953.34;5053196;28;20036;-75
2023/08/11 09:42:48;;;;;;;1.45;1.35;;;;;;;39.10;25.68;101955.84;5053108;28;20021;-74
2023/08/11 09:45:14;;;;;;;3.22;1.52;;;;;;;39.14;25.68;101962.66;5052533;28;20040;-76
2023/08/11 09:47:40;;;;;;;2.60;1.63;;;;;;;39.36;25.87;101950.97;5053117;28;20070;-75
2023/08/11 09:50:08;;;;;;;7.10;2.35;;;;;;;38.24;26.51;101959.13;5054012;28;20251;-75
2023/08/11 09:52:35;;;;;;;4.25;1.80;;;;;;;35.05;30.40;101961.25;5033323;28;20070;-74
2023/08/11 09:55:06;;;;;;;3.40;1.50;;;;;;;36.53;29.33;101955.63;5051677;28;20029;-73
2023/08/11 09:57:35;;;;;;;2.63;1.40;;;;;;;34.83;31.37;101957.06;5069478;28;20120;-73
2023/08/11 10:00:01;;;;;;;3.20;2.03;;;;;;;34.57;32.21;101954.06;5051662;28;20656;-75
2023/08/11 10:02:30;;;;;;;4.18;1.98;;;;;;;35.78;31.33;101956.84;5049289;28;20123;-74
2023/08/11 10:05:06;;;;;;;2.67;1.90;;;;;;;36.27;30.20;101951.84;5036231;28;20428;-74
2023/08/11 10:07:35;;;;;;;2.58;1.90;;;;;;;36.31;30.06;101946.94;5041956;28;20078;-73
2023/08/11 10:10:12;;;;;;;6.32;2.38;;;;;;;35.91;31.65;101941.00;5053665;28;20121;-74
2023/08/11 10:13:21;;;;;;;3.30;2.60;;;;;;;37.27;29.84;101945.97;5068617;28;20047;-76
2023/08/11 10:15:48;;;;;;;3.13;2.40;;;;;;;37.23;29.80;101946.47;5050757;28;20040;-74
2023/08/11 10:18:16;;;;;;;2.88;2.05;;;;;;;37.30;30.35;101937.50;5042060;28;20111;-74
2023/08/11 10:20:42;;;;;;;4.28;2.08;;;;;;;36.76;30.29;101940.44;5070272;28;20040;-73
2023/08/11 10:23:08;;;;;;;3.88;2.45;;;;;;;35.76;32.51;101951.53;5040308;28;20017;-75
2023/08/11 10:25:35;;;;;;;5.40;2.40;;;;;;;35.77;31.84;101946.97;5051906;28;20506;-75
2023/08/11 10:28:02;;;;;;;7.53;2.67;;;;;;;35.56;31.77;101941.81;5051794;28;20048;-75
2023/08/11 10:30:28;;;;;;;3.42;2.60;;;;;;;36.40;31.60;101947.91;5050166;28;20047;-72
2023/08/11 10:33:03;;;;;;;3.42;2.35;;;;;;;37.54;30.20;101930.41;5048305;28;20183;-73
2023/08/11 10:35:47;;;;;;;2.35;2.08;;;;;;;37.01;30.62;101940.59;5051235;28;20728;-74
2023/08/11 10:38:16;;;;;;;6.65;2.13;;;;;;;35.41;32.45;101944.22;5051902;28;20048;-73
2023/08/11 10:40:44;;;;;;;4.00;2.25;;;;;;;35.42;33.10;101941.34;5069588;28;20032;-73
2023/08/11 10:43:09;;;;;;;2.75;1.90;;;;;;;35.09;33.50;101949.06;5069309;28;20031;-73
2023/08/11 10:45:36;;;;;;;3.03;1.88;;;;;;;35.90;31.73;101955.63;5033841;28;20033;-74
2023/08/11 10:48:08;;;;;;;3.17;1.95;;;;;;;35.53;32.81;101948.44;5052387;28;20016;-74
2023/08/11 10:50:37;;;;;;;2.83;1.60;;;;;;;35.81;32.26;101945.66;5051963;28;20023;-73
2023/08/11 10:53:06;;;;;;;3.00;1.40;;;;;;;36.37;31.66;101940.91;5041746;28;20380;-73
2023/08/11 10:55:36;;;;;;;2.17;1.85;;;;;;;37.49;30.74;101930.03;5069498;28;20480;-73
2023/08/11 10:58:17;;;;;;;2.40;1.80;;;;;;;36.09;31.85;101938.25;5061820;28;20485;-74
2023/08/11 11:00:43;;;;;;;2.13;1.52;;;;;;;36.36;31.80;101944.63;5050311;28;20032;-74
2023/08/11 11:03:11;;;;;;;4.50;2.17;;;;;;;36.74;31.07;101944.34;5069736;28;20032;-73
2023/08/11 11:05:37;;;;;;;1.83;1.42;;;;;;;36.47;31.80;101952.53;5070169;28;20024;-73
2023/08/11 11:08:03;;;;;;;2.10;1.58;;;;;;;35.35;32.94;101950.25;5051196;28;20518;-73
2023/08/11 11:10:28;;;;;;;3.55;1.80;;;;;;;35.30;32.92;101954.25;5051622;28;20036;-74
2023/08/11 11:12:55;;;;;;;3.38;2.00;;;;;;;36.96;30.71;101946.53;5050913;28;20388;-74
2023/08/11 11:15:21;;;;;;;2.67;1.90;;;;;;;37.06;29.85;101951.84;5052065;28;20044;-74
2023/08/11 11:17:49;;;;;;;3.03;1.63;;;;;;;36.72;31.39;101951.84;5050922;28;20395;-74
2023/08/11 11:20:15;;;;;;;3.60;1.92;;;;;;;36.12;31.71;101953.41;5052080;28;20032;-74